createdAt,value
2019-04-16T00:00:30.569Z,99686.91
2019-04-16T00:02:58.327Z,99684.60
2019-04-16T00:05:43.620Z,99676.40
2019-04-16T00:08:33.777Z,99670.82
2019-04-16T00:11:37.515Z,99671.48
2019-04-16T00:14:21.230Z,99668.22
2019-04-16T00:16:48.986Z,99671.02
2019-04-16T00:19:16.722Z,99675.28
2019-04-16T00:22:33.301Z,99671.31
2019-04-16T00:25:01.088Z,99673.32
2019-04-16T00:27:29.454Z,99675.33
2019-04-16T00:29:57.558Z,99672.59
2019-04-16T00:32:28.207Z,99675.57
2019-04-16T00:34:56.017Z,99674.11
2019-04-16T00:37:23.762Z,99670.92
2019-04-16T00:39:55.622Z,99665.79
2019-04-16T00:42:21.326Z,99665.55
2019-04-16T00:44:49.074Z,99666.44
2019-04-16T00:47:16.818Z,99662.45
2019-04-16T00:49:44.627Z,99666.96
2019-04-16T00:52:22.563Z,99667.53
2019-04-16T00:54:50.372Z,99668.91
2019-04-16T00:57:18.745Z,99670.48
2019-04-16T00:59:46.752Z,99671.20
2019-04-16T01:02:14.487Z,99668.45
2019-04-16T01:04:42.292Z,99668.33
2019-04-16T01:07:10.077Z,99661.35
2019-04-16T01:09:37.839Z,99666.06
2019-04-16T01:12:05.632Z,99666.48
2019-04-16T01:14:33.372Z,99668.61
2019-04-16T01:17:03.838Z,99665.33
2019-04-16T01:19:30.820Z,99662.88
2019-04-16T01:21:58.762Z,99667.28
2019-04-16T01:24:26.527Z,99670.45
2019-04-16T01:26:55.478Z,99668.27
2019-04-16T01:29:23.991Z,99666.89
2019-04-16T01:32:18.885Z,99671.38
2019-04-16T01:35:04.119Z,99671.13
2019-04-16T01:37:51.506Z,99670.59
2019-04-16T01:40:24.589Z,99671.09
2019-04-16T01:42:54.705Z,99671.76
2019-04-16T01:45:22.383Z,99670.35
2019-04-16T01:47:50.220Z,99673.73
2019-04-16T01:50:17.967Z,99681.92
2019-04-16T01:52:49.453Z,99678.28
2019-04-16T01:55:15.419Z,99680.38
2019-04-16T01:57:43.238Z,99682.28
2019-04-16T02:00:11.923Z,99677.84
2019-04-16T02:02:39.722Z,99682.36
2019-04-16T02:05:07.541Z,99681.51
2019-04-16T02:07:35.308Z,99680.14
2019-04-16T02:10:05.964Z,99683.15
2019-04-16T02:12:37.988Z,99685.36
2019-04-16T02:15:06.485Z,99678.89
2019-04-16T02:17:34.295Z,99682.73
2019-04-16T02:20:05.542Z,99682.98
2019-04-16T02:22:31.877Z,99684.39
2019-04-16T02:24:59.661Z,99681.33
2019-04-16T02:27:27.446Z,99683.57
2019-04-16T02:29:55.219Z,99679.00
2019-04-16T02:32:23.058Z,99679.91
2019-04-16T02:34:50.870Z,99681.94
2019-04-16T02:37:18.620Z,99686.29
2019-04-16T02:39:48.293Z,99685.89
2019-04-16T02:42:16.361Z,99681.48
2019-04-16T02:44:48.890Z,99683.28
2019-04-16T02:47:13.819Z,99685.97
2019-04-16T02:49:43.624Z,99684.65
2019-04-16T02:52:51.014Z,99684.62
2019-04-16T02:55:43.918Z,99681.95
2019-04-16T02:58:12.438Z,99677.38
2019-04-16T03:01:00.007Z,99673.25
2019-04-16T03:03:41.857Z,99670.27
2019-04-16T03:06:09.831Z,99669.44
2019-04-16T03:08:37.639Z,99667.11
2019-04-16T03:11:05.598Z,99673.30
2019-04-16T03:13:33.375Z,99670.30
2019-04-16T03:16:24.710Z,99667.00
2019-04-16T03:18:57.303Z,99668.94
2019-04-16T03:21:30.165Z,99667.38
2019-04-16T03:23:57.936Z,99668.78
2019-04-16T03:26:25.791Z,99667.75
2019-04-16T03:28:55.721Z,99666.69
2019-04-16T03:31:23.960Z,99662.68
2019-04-16T03:33:51.834Z,99663.44
2019-04-16T03:36:19.531Z,99664.69
2019-04-16T03:38:47.375Z,99659.92
2019-04-16T03:41:15.294Z,99635.05
2019-04-16T03:43:43.036Z,99662.91
2019-04-16T03:46:12.778Z,99660.06
2019-04-16T03:48:40.512Z,99658.72
2019-04-16T03:51:08.569Z,99657.53
2019-04-16T03:53:36.372Z,99655.98
2019-04-16T03:56:04.185Z,99656.65
2019-04-16T03:58:31.956Z,99657.30
2019-04-16T04:00:59.920Z,99661.03
2019-04-16T04:03:27.681Z,99659.20
2019-04-16T04:05:55.941Z,99658.05
2019-04-16T04:08:24.117Z,99655.27
2019-04-16T04:10:57.107Z,99653.83
2019-04-16T04:13:24.892Z,99656.92
2019-04-16T04:15:55.034Z,99652.88
2019-04-16T04:18:22.727Z,99655.53
2019-04-16T04:20:50.979Z,99650.63
2019-04-16T04:23:18.834Z,99648.50
2019-04-16T04:25:46.820Z,99652.39
2019-04-16T04:28:18.546Z,99651.91
2019-04-16T04:30:44.427Z,99652.56
2019-04-16T04:33:32.036Z,99653.78
2019-04-16T04:35:59.829Z,99652.91
2019-04-16T04:38:27.594Z,99654.52
2019-04-16T04:40:55.463Z,99657.95
2019-04-16T04:43:23.203Z,99650.81
2019-04-16T04:45:51.040Z,99653.66
2019-04-16T04:48:23.198Z,99661.98
2019-04-16T04:50:48.649Z,99655.25
2019-04-16T04:53:19.178Z,99666.28
2019-04-16T04:55:46.095Z,99668.15
2019-04-16T04:58:13.846Z,99668.87
2019-04-16T05:00:41.890Z,99668.91
2019-04-16T05:03:15.184Z,99672.62
2019-04-16T05:05:46.514Z,99670.83
2019-04-16T05:08:14.296Z,99670.84
2019-04-16T05:10:43.257Z,99678.16
2019-04-16T05:13:11.794Z,99681.91
2019-04-16T05:15:39.573Z,99685.00
2019-04-16T05:18:09.934Z,99691.04
2019-04-16T05:20:37.063Z,99689.78
2019-04-16T05:23:04.967Z,99684.42
2019-04-16T05:25:34.179Z,99684.70
2019-04-16T05:28:02.206Z,99687.36
2019-04-16T05:30:30.018Z,99682.30
2019-04-16T05:32:58.912Z,99682.18
2019-04-16T05:35:26.642Z,99678.84
2019-04-16T05:37:54.423Z,99680.76
2019-04-16T05:40:22.217Z,99680.67
2019-04-16T05:42:52.545Z,99684.05
2019-04-16T05:45:19.633Z,99683.39
2019-04-16T05:47:49.056Z,99681.95
2019-04-16T05:50:17.067Z,99686.06
2019-04-16T05:52:44.922Z,99691.58
2019-04-16T05:55:41.155Z,99687.00
2019-04-16T05:58:08.966Z,99690.83
2019-04-16T06:00:44.892Z,99685.97
2019-04-16T06:03:12.750Z,99684.79
2019-04-16T06:05:40.488Z,99685.39
2019-04-16T06:08:10.321Z,99680.14
2019-04-16T06:10:38.654Z,99680.22
2019-04-16T06:13:32.213Z,99680.34
2019-04-16T06:16:25.181Z,99685.38
2019-04-16T06:19:01.508Z,99681.80
2019-04-16T06:21:56.688Z,99683.81
2019-04-16T06:24:42.829Z,99681.34
2019-04-16T06:27:33.090Z,99688.37
2019-04-16T06:30:32.981Z,99685.89
2019-04-16T06:33:04.549Z,99683.25
2019-04-16T06:35:43.339Z,99683.03
2019-04-16T06:38:18.305Z,99686.09
2019-04-16T06:41:09.150Z,99687.16
2019-04-16T06:43:40.358Z,99684.22
2019-04-16T06:46:26.345Z,99681.72
2019-04-16T06:49:22.913Z,99676.84
2019-04-16T06:52:04.606Z,99677.64
2019-04-16T06:54:50.588Z,99678.61
2019-04-16T06:57:40.345Z,99673.64
2019-04-16T07:00:21.629Z,99674.49
2019-04-16T07:03:15.051Z,99665.64
2019-04-16T07:06:11.149Z,99663.63
2019-04-16T07:08:58.532Z,99657.30
2019-04-16T07:11:26.384Z,99645.78
2019-04-16T07:13:54.175Z,99647.36
2019-04-16T07:16:21.970Z,99643.16
2019-04-16T07:18:49.724Z,99643.14
2019-04-16T07:21:18.332Z,99643.28
2019-04-16T07:23:47.078Z,99645.39
2019-04-16T07:26:15.566Z,99642.02
2019-04-16T07:28:50.100Z,99641.38
2019-04-16T07:31:34.508Z,99641.34
2019-04-16T07:34:22.658Z,99642.17
2019-04-16T07:37:07.914Z,99645.48
2019-04-16T07:39:58.498Z,99648.00
2019-04-16T07:42:51.018Z,99640.30
2019-04-16T07:45:15.411Z,99643.76
2019-04-16T07:48:06.975Z,99641.30
2019-04-16T07:50:57.644Z,99641.72
2019-04-16T07:54:02.286Z,99640.00
2019-04-16T07:56:29.905Z,99644.23
2019-04-16T07:59:01.277Z,99642.81
2019-04-16T08:01:27.613Z,99637.66
2019-04-16T08:03:56.794Z,99638.45
2019-04-16T08:06:25.079Z,99631.58
2019-04-16T08:08:53.864Z,99632.02
2019-04-16T08:11:23.144Z,99629.72
2019-04-16T08:13:51.166Z,99627.66
2019-04-16T08:16:19.118Z,99630.48
2019-04-16T08:18:48.830Z,99618.66
2019-04-16T08:21:16.646Z,99616.56
2019-04-16T08:23:51.453Z,99612.61
2019-04-16T08:26:17.772Z,99615.83
2019-04-16T08:28:45.571Z,99613.11
2019-04-16T08:31:17.365Z,99604.56
2019-04-16T08:33:45.191Z,99596.79
2019-04-16T08:36:12.934Z,99601.05
2019-04-16T08:38:40.782Z,99602.66
2019-04-16T08:41:08.577Z,99597.75
2019-04-16T08:43:39.751Z,99590.43
2019-04-16T08:46:11.023Z,99584.70
2019-04-16T08:48:37.314Z,99585.88
2019-04-16T08:51:05.401Z,99579.77
2019-04-16T08:53:35.595Z,99574.36
2019-04-16T08:56:03.242Z,99578.17
2019-04-16T08:58:31.036Z,99575.17
2019-04-16T09:00:58.928Z,99574.23
2019-04-16T09:03:29.881Z,99573.14
2019-04-16T09:05:56.408Z,99568.63
2019-04-16T09:08:46.387Z,99562.79
2019-04-16T09:11:23.097Z,99565.73
2019-04-16T09:13:48.369Z,99563.00
2019-04-16T09:16:16.892Z,99561.72
2019-04-16T09:18:52.759Z,99569.52
2019-04-16T09:21:21.016Z,99568.04
2019-04-16T09:24:09.432Z,99564.48
2019-04-16T09:26:52.723Z,99565.34
2019-04-16T09:29:59.232Z,99559.83
2019-04-16T09:32:36.547Z,99551.56
2019-04-16T09:35:20.055Z,99560.60
2019-04-16T09:38:13.016Z,99562.28
2019-04-16T09:40:59.399Z,99558.37
2019-04-16T09:43:27.901Z,99554.52
2019-04-16T09:46:09.348Z,99554.61
2019-04-16T09:48:25.415Z,99553.93
2019-04-16T09:50:53.638Z,99549.13
2019-04-16T09:53:32.598Z,99542.97
2019-04-16T09:55:51.989Z,99539.99
2019-04-16T09:58:22.610Z,99531.84
2019-04-16T10:01:00.810Z,99534.52
2019-04-16T10:03:34.640Z,99532.52
2019-04-16T10:06:05.335Z,99529.88
2019-04-16T10:08:32.739Z,99523.95
2019-04-16T10:11:06.412Z,99521.27
2019-04-16T10:13:36.240Z,99516.56
2019-04-16T10:16:04.765Z,99511.05
2019-04-16T10:18:35.126Z,99519.05
2019-04-16T10:21:02.907Z,99507.98
2019-04-16T10:23:49.257Z,99509.30
2019-04-16T10:26:18.765Z,99507.84
2019-04-16T10:28:47.314Z,99504.95
2019-04-16T10:31:17.405Z,99500.68
2019-04-16T10:33:45.581Z,99504.20
2019-04-16T10:36:13.485Z,99499.66
2019-04-16T10:38:54.772Z,99501.97
2019-04-16T10:41:35.417Z,99492.74
2019-04-16T10:44:12.603Z,99492.63
2019-04-16T10:46:48.768Z,99485.75
2019-04-16T10:49:22.686Z,99488.64
2019-04-16T10:52:23.278Z,99485.07
2019-04-16T10:54:59.501Z,99477.28
2019-04-16T10:57:49.877Z,99474.42
2019-04-16T11:00:33.810Z,99479.14
2019-04-16T11:03:05.570Z,99471.31
2019-04-16T11:06:04.922Z,99468.64
2019-04-16T11:08:33.034Z,99474.22
2019-04-16T11:11:01.038Z,99470.20
2019-04-16T11:13:33.111Z,99471.67
2019-04-16T11:16:06.701Z,99462.88
2019-04-16T11:18:34.523Z,99457.44
2019-04-16T11:21:03.213Z,99454.00
2019-04-16T11:23:31.096Z,99456.04
2019-04-16T11:25:59.045Z,99445.91
2019-04-16T11:28:26.925Z,99443.95
2019-04-16T11:30:56.867Z,99444.28
2019-04-16T11:33:27.415Z,99447.29
2019-04-16T11:35:54.442Z,99442.79
2019-04-16T11:38:22.249Z,99440.16
2019-04-16T11:40:50.159Z,99435.67
2019-04-16T11:43:18.029Z,99443.18
2019-04-16T11:45:46.044Z,99436.89
2019-04-16T11:48:13.990Z,99433.35
2019-04-16T11:50:41.923Z,99440.55
2019-04-16T11:53:09.781Z,99438.13
2019-04-16T11:55:38.051Z,99441.54
2019-04-16T11:58:12.132Z,99430.15
2019-04-16T12:00:50.502Z,99431.52
2019-04-16T12:03:27.758Z,99425.14
2019-04-16T12:06:28.090Z,99427.84
2019-04-16T12:09:10.918Z,99428.34
2019-04-16T12:11:42.161Z,99436.30
2019-04-16T12:14:32.279Z,99435.16
2019-04-16T12:17:04.767Z,99436.52
2019-04-16T12:19:54.759Z,99426.25
2019-04-16T12:22:41.300Z,99426.83
2019-04-16T12:25:34.608Z,99432.89
2019-04-16T12:28:25.020Z,99437.95
2019-04-16T12:31:11.475Z,99433.09
2019-04-16T12:34:02.277Z,99428.23
2019-04-16T12:36:49.727Z,99433.39
2019-04-16T12:39:46.413Z,99434.02
2019-04-16T12:42:42.191Z,99436.49
2019-04-16T12:45:29.481Z,99437.55
2019-04-16T12:48:16.941Z,99433.34
2019-04-16T12:51:04.883Z,99433.66
2019-04-16T12:53:42.983Z,99432.09
2019-04-16T12:56:31.922Z,99428.95
2019-04-16T12:59:14.750Z,99429.67
2019-04-16T13:02:04.799Z,99423.49
2019-04-16T13:05:04.531Z,99428.73
2019-04-16T13:08:09.996Z,99421.69
2019-04-16T13:10:47.794Z,99423.95
2019-04-16T13:13:33.914Z,99422.59
2019-04-16T13:16:16.486Z,99424.03
2019-04-16T13:18:59.266Z,99419.73
2019-04-16T13:21:32.915Z,99419.73
2019-04-16T13:24:29.381Z,99413.58
2019-04-16T13:27:22.923Z,99409.70
2019-04-16T13:29:50.750Z,99411.70
2019-04-16T13:32:18.955Z,99409.37
2019-04-16T13:34:46.798Z,99412.68
2019-04-16T13:37:14.565Z,99414.97
2019-04-16T13:40:17.040Z,99408.66
2019-04-16T13:42:44.907Z,99407.27
2019-04-16T13:45:28.587Z,99409.66
2019-04-16T13:47:56.544Z,99403.25
2019-04-16T13:50:41.014Z,99405.74
2019-04-16T13:53:22.835Z,99401.14
2019-04-16T13:56:25.055Z,99403.49
2019-04-16T13:59:19.509Z,99401.45
2019-04-16T14:02:18.624Z,99404.30
2019-04-16T14:04:45.721Z,99393.04
2019-04-16T14:07:13.557Z,99400.35
2019-04-16T14:09:44.307Z,99395.82
2019-04-16T14:12:11.072Z,99397.87
2019-04-16T14:14:38.982Z,99393.31
2019-04-16T14:17:10.973Z,99396.89
2019-04-16T14:19:38.819Z,99396.00
2019-04-16T14:22:06.843Z,99395.16
2019-04-16T14:24:34.747Z,99393.61
2019-04-16T14:27:03.047Z,99393.17
2019-04-16T14:29:30.880Z,99388.64
2019-04-16T14:31:58.916Z,99394.45
2019-04-16T14:34:34.955Z,99393.69
2019-04-16T14:37:02.717Z,99397.39
2019-04-16T14:39:34.643Z,99396.80
2019-04-16T14:42:02.634Z,99386.64
2019-04-16T14:44:35.570Z,99387.09
2019-04-16T14:47:03.502Z,99390.80
2019-04-16T14:49:31.253Z,99387.70
2019-04-16T14:52:02.036Z,99390.97
2019-04-16T14:54:33.282Z,99398.43
2019-04-16T14:57:01.304Z,99390.59
2019-04-16T14:59:40.327Z,99400.61
2019-04-16T15:02:31.887Z,99394.78
2019-04-16T15:05:15.743Z,99394.13
2019-04-16T15:08:02.937Z,99393.83
2019-04-16T15:10:48.889Z,99396.33
2019-04-16T15:13:35.065Z,99398.66
2019-04-16T15:16:22.551Z,99398.07
2019-04-16T15:19:10.022Z,99396.86
2019-04-16T15:22:15.482Z,99400.02
2019-04-16T15:25:01.487Z,99401.43
2019-04-16T15:27:49.572Z,99405.56
2019-04-16T15:30:35.615Z,99405.84
2019-04-16T15:33:23.069Z,99406.94
2019-04-16T15:36:19.502Z,99405.21
2019-04-16T15:39:08.183Z,99399.52
2019-04-16T15:41:53.911Z,99398.95
2019-04-16T15:44:35.551Z,99399.08
2019-04-16T15:47:22.957Z,99403.20
2019-04-16T15:49:57.902Z,99399.33
2019-04-16T15:52:48.004Z,99398.94
2019-04-16T15:55:44.728Z,99397.06
2019-04-16T15:58:36.037Z,99401.55
2019-04-16T16:01:32.352Z,99404.17
2019-04-16T16:04:11.875Z,99407.80
2019-04-16T16:06:43.826Z,99412.16
2019-04-16T16:09:37.528Z,99416.77
2019-04-16T16:12:14.699Z,99419.17
2019-04-16T16:14:42.497Z,99426.09
2019-04-16T16:17:10.348Z,99428.03
2019-04-16T16:19:39.099Z,99422.50
2019-04-16T16:22:31.596Z,99429.86
2019-04-16T16:24:59.385Z,99430.08
2019-04-16T16:27:27.135Z,99434.44
2019-04-16T16:29:55.023Z,99435.65
2019-04-16T16:32:37.965Z,99434.91
2019-04-16T16:35:06.079Z,99433.36
2019-04-16T16:37:36.371Z,99437.47
2019-04-16T16:40:04.827Z,99436.63
2019-04-16T16:42:37.651Z,99439.20
2019-04-16T16:45:05.729Z,99440.94
2019-04-16T16:47:42.341Z,99441.78
2019-04-16T16:50:15.632Z,99440.83
2019-04-16T16:52:59.250Z,99449.19
2019-04-16T16:55:32.062Z,99445.44
2019-04-16T16:58:07.441Z,99449.75
2019-04-16T17:01:04.214Z,99447.75
2019-04-16T17:03:55.003Z,99446.30
2019-04-16T17:06:23.197Z,99450.88
2019-04-16T17:08:51.052Z,99453.05
2019-04-16T17:11:18.895Z,99453.73
2019-04-16T17:13:47.080Z,99439.63
2019-04-16T17:16:14.969Z,99462.83
2019-04-16T17:18:45.500Z,99457.63
2019-04-16T17:21:13.116Z,99464.11
2019-04-16T17:23:40.895Z,99465.74
2019-04-16T17:26:08.696Z,99463.81
2019-04-16T17:28:36.523Z,99470.41
2019-04-16T17:31:04.825Z,99467.50
2019-04-16T17:33:32.601Z,99471.33
2019-04-16T17:36:00.664Z,99475.47
2019-04-16T17:38:28.988Z,99473.98
2019-04-16T17:41:00.222Z,99480.02
2019-04-16T17:44:03.103Z,99482.78
2019-04-16T17:46:50.065Z,99481.59
2019-04-16T17:49:29.652Z,99488.39
2019-04-16T17:52:17.494Z,99490.14
2019-04-16T17:54:53.293Z,99491.01
2019-04-16T17:57:44.724Z,99499.02
2019-04-16T18:00:41.055Z,99503.74
2019-04-16T18:03:49.191Z,99508.79
2019-04-16T18:06:36.599Z,99505.47
2019-04-16T18:09:21.102Z,99511.92
2019-04-16T18:12:08.623Z,99514.75
2019-04-16T18:14:54.664Z,99520.91
2019-04-16T18:17:47.922Z,99528.81
2019-04-16T18:20:22.297Z,99532.05
2019-04-16T18:23:18.576Z,99535.88
2019-04-16T18:26:05.999Z,99538.81
2019-04-16T18:28:38.031Z,99539.56
2019-04-16T18:31:12.055Z,99542.79
2019-04-16T18:34:05.112Z,99540.50
2019-04-16T18:36:36.342Z,99541.53
2019-04-16T18:39:31.293Z,99539.06
2019-04-16T18:42:11.247Z,99551.05
2019-04-16T18:45:04.666Z,99553.81
2019-04-16T18:48:02.769Z,99558.42
2019-04-16T18:50:28.907Z,99563.38
2019-04-16T18:52:56.740Z,99558.87
2019-04-16T18:55:24.610Z,99568.80
2019-04-16T18:57:55.463Z,99579.75
2019-04-16T19:00:42.920Z,99581.68
2019-04-16T19:03:14.650Z,99583.88
2019-04-16T19:05:40.697Z,99586.44
2019-04-16T19:08:09.507Z,99589.77
2019-04-16T19:10:37.893Z,99595.08
2019-04-16T19:13:10.031Z,99601.02
2019-04-16T19:15:35.546Z,99601.66
2019-04-16T19:18:18.458Z,99602.44
2019-04-16T19:20:33.502Z,99606.19
2019-04-16T19:23:01.359Z,99611.16
2019-04-16T19:25:30.699Z,99611.45
2019-04-16T19:28:05.003Z,99611.20
2019-04-16T19:30:28.993Z,99614.30
2019-04-16T19:33:00.125Z,99622.97
2019-04-16T19:35:26.924Z,99626.86
2019-04-16T19:37:54.743Z,99633.21
2019-04-16T19:40:27.793Z,99634.42
2019-04-16T19:42:57.839Z,99633.34
2019-04-16T19:45:26.170Z,99631.49
2019-04-16T19:48:00.309Z,99633.47
2019-04-16T19:50:24.059Z,99634.91
2019-04-16T19:52:51.913Z,99642.23
2019-04-16T19:55:19.725Z,99641.69
2019-04-16T19:57:47.582Z,99642.97
2019-04-16T20:00:21.836Z,99649.17
2019-04-16T20:02:45.482Z,99652.86
2019-04-16T20:05:15.326Z,99651.45
2019-04-16T20:07:43.997Z,99657.62
2019-04-16T20:10:11.978Z,99657.28
2019-04-16T20:12:40.388Z,99655.23
2019-04-16T20:15:09.779Z,99657.61
2019-04-16T20:17:38.424Z,99658.52
2019-04-16T20:20:07.195Z,99664.06
2019-04-16T20:22:35.719Z,99665.81
2019-04-16T20:25:04.541Z,99665.09
2019-04-16T20:27:32.348Z,99665.66
2019-04-16T20:30:00.219Z,99667.17
2019-04-16T20:32:31.082Z,99667.88
2019-04-16T20:34:59.314Z,99672.35
2019-04-16T20:37:27.240Z,99669.90
2019-04-16T20:39:55.424Z,99668.97
2019-04-16T20:42:23.691Z,99670.30
2019-04-16T20:44:51.566Z,99668.52
2019-04-16T20:47:19.400Z,99672.49
2019-04-16T20:49:49.144Z,99677.44
2019-04-16T20:52:17.672Z,99675.84
2019-04-16T20:54:49.640Z,99681.66
2019-04-16T20:57:17.434Z,99686.97
2019-04-16T20:59:51.362Z,99688.02
2019-04-16T21:02:19.477Z,99690.35
2019-04-16T21:04:47.322Z,99694.34
2019-04-16T21:07:15.509Z,99700.12
2019-04-16T21:09:43.696Z,99701.27
2019-04-16T21:12:13.182Z,99701.50
2019-04-16T21:14:41.311Z,99707.48
2019-04-16T21:17:09.082Z,99710.47
2019-04-16T21:19:47.853Z,99710.31
2019-04-16T21:22:17.850Z,99715.61
2019-04-16T21:24:46.482Z,99718.75
2019-04-16T21:27:14.478Z,99722.92
2019-04-16T21:29:42.512Z,99727.23
2019-04-16T21:32:21.660Z,99734.19
2019-04-16T21:34:51.986Z,99734.08
2019-04-16T21:37:36.163Z,99733.44
2019-04-16T21:40:04.624Z,99740.88
2019-04-16T21:42:35.035Z,99745.36
2019-04-16T21:45:02.514Z,99750.95
2019-04-16T21:47:30.334Z,99750.28
2019-04-16T21:49:58.103Z,99750.79
2019-04-16T21:52:26.123Z,99748.67
2019-04-16T21:54:53.949Z,99749.37
2019-04-16T21:57:21.747Z,99758.92
2019-04-16T21:59:50.307Z,99763.57
2019-04-16T22:02:24.225Z,99759.97
2019-04-16T22:05:48.052Z,99761.12
2019-04-16T22:08:13.595Z,99761.16
2019-04-16T22:10:41.616Z,99768.91
2019-04-16T22:13:09.395Z,99763.48
2019-04-16T22:15:37.172Z,99759.38
2019-04-16T22:18:08.064Z,99766.14
2019-04-16T22:20:35.808Z,99770.30
2019-04-16T22:23:04.950Z,99768.98
2019-04-16T22:25:32.900Z,99767.34
2019-04-16T22:28:00.717Z,99775.73
2019-04-16T22:30:28.530Z,99774.60
2019-04-16T22:32:56.301Z,99776.25
2019-04-16T22:35:24.066Z,99773.28
2019-04-16T22:37:51.769Z,99779.03
2019-04-16T22:40:37.744Z,99779.20
2019-04-16T22:43:30.693Z,99788.11
2019-04-16T22:46:06.085Z,99790.77
2019-04-16T22:48:33.876Z,99788.81
2019-04-16T22:51:01.787Z,99795.56
2019-04-16T22:53:29.563Z,99796.41
2019-04-16T22:55:58.167Z,99796.74
2019-04-16T22:58:45.622Z,99795.73
2019-04-16T23:01:14.299Z,99799.52
2019-04-16T23:03:42.589Z,99792.95
2019-04-16T23:06:10.381Z,99793.77
2019-04-16T23:08:40.566Z,99793.41
2019-04-16T23:11:07.820Z,99796.70
2019-04-16T23:13:35.631Z,99790.60
2019-04-16T23:16:03.435Z,99796.68
2019-04-16T23:18:31.258Z,99798.80
2019-04-16T23:20:59.209Z,99803.26
2019-04-16T23:23:27.046Z,99805.84
2019-04-16T23:25:59.026Z,99804.19
2019-04-16T23:28:24.545Z,99809.83
2019-04-16T23:30:52.320Z,99816.57
2019-04-16T23:33:20.102Z,99811.15
2019-04-16T23:35:47.891Z,99816.59
2019-04-16T23:38:15.700Z,99808.99
2019-04-16T23:40:43.936Z,99815.70
2019-04-16T23:43:34.507Z,99815.53
2019-04-16T23:46:40.224Z,99817.00
2019-04-16T23:49:32.377Z,99819.44
2019-04-16T23:52:10.633Z,99821.92
2019-04-16T23:54:44.048Z,99817.47
2019-04-16T23:57:26.862Z,99820.58
